createdAt,value
2023-08-29T00:00:17.903Z,9.4
2023-08-29T00:06:08.029Z,9.3
2023-08-29T00:11:59.173Z,10.4
2023-08-29T00:17:52.143Z,10
2023-08-29T00:23:42.283Z,13.8
2023-08-29T00:29:34.685Z,16.3
2023-08-29T00:35:24.445Z,11.4
2023-08-29T00:41:14.607Z,11.3
2023-08-29T00:48:17.670Z,12.1
2023-08-29T00:54:05.711Z,12.3
2023-08-29T00:59:56.423Z,12.1
2023-08-29T01:05:47.228Z,12.9
2023-08-29T01:11:37.264Z,14.6
2023-08-29T01:17:27.741Z,16.7
2023-08-29T01:23:22.449Z,15.9
2023-08-29T01:29:14.377Z,13.5
2023-08-29T01:35:09.547Z,14.8
2023-08-29T01:41:01.424Z,16.7
2023-08-29T01:46:53.800Z,16.3
2023-08-29T01:53:54.610Z,16.3
2023-08-29T01:59:45.829Z,13.9
2023-08-29T02:05:38.114Z,14.2
2023-08-29T02:11:29.759Z,14.4
2023-08-29T02:18:32.911Z,15.4
2023-08-29T02:24:24.497Z,14.7
2023-08-29T02:30:17.159Z,13.8
2023-08-29T02:36:14.156Z,13.9
2023-08-29T02:43:14.588Z,16.6
2023-08-29T02:49:06.012Z,15.5
2023-08-29T02:54:58.079Z,15.9
2023-08-29T03:01:59.521Z,16.8
2023-08-29T03:07:50.850Z,15.5
2023-08-29T03:13:42.631Z,14.5
2023-08-29T03:19:34.367Z,15.1
2023-08-29T03:25:27.709Z,16.6
2023-08-29T03:31:20.822Z,19
2023-08-29T03:37:17.237Z,21
2023-08-29T03:43:08.880Z,17.6
2023-08-29T03:49:01.382Z,17.9
2023-08-29T03:54:54.371Z,22.2
2023-08-29T04:00:46.691Z,21.8
2023-08-29T04:06:38.696Z,23.5
2023-08-29T04:12:31.829Z,20.9
2023-08-29T04:18:24.186Z,19
2023-08-29T04:24:16.810Z,21.1
2023-08-29T04:31:18.439Z,24.4
2023-08-29T04:38:20.661Z,26.1
2023-08-29T04:44:12.696Z,22.8
2023-08-29T04:50:05.544Z,23.8
2023-08-29T04:55:57.692Z,24.5
2023-08-29T05:01:55.824Z,26
2023-08-29T05:07:47.711Z,24.6
2023-08-29T05:14:49.632Z,27.2
2023-08-29T05:20:42.977Z,23.9
2023-08-29T05:26:38.028Z,25.1
2023-08-29T05:32:33.963Z,24.7
2023-08-29T05:38:26.316Z,23.8
2023-08-29T05:44:20.357Z,25.3
2023-08-29T05:50:11.985Z,25.8
2023-08-29T05:56:04.908Z,24.5
2023-08-29T06:01:57.599Z,25.2
2023-08-29T06:07:49.941Z,26.9
2023-08-29T06:13:42.083Z,27
2023-08-29T06:19:34.073Z,28.6
2023-08-29T06:25:28.136Z,29.2
2023-08-29T06:31:20.323Z,30.1
2023-08-29T06:37:12.715Z,27.1
2023-08-29T06:43:04.964Z,30.9
2023-08-29T06:50:07.990Z,28.4
2023-08-29T06:57:07.987Z,28
2023-08-29T07:04:09.596Z,28.6
2023-08-29T07:10:01.494Z,27
2023-08-29T07:15:56.990Z,28.5
2023-08-29T07:21:48.737Z,28.6
2023-08-29T07:27:39.570Z,28.4
2023-08-29T07:33:31.641Z,30.5
2023-08-29T07:39:25.710Z,32.8
2023-08-29T07:45:17.836Z,33.1
2023-08-29T07:51:13.268Z,34.7
2023-08-29T07:57:09.881Z,34.1
2023-08-29T08:04:12.341Z,40.3
2023-08-29T08:10:04.801Z,40.7
2023-08-29T08:15:54.975Z,43.1
2023-08-29T08:22:56.974Z,47.6
2023-08-29T08:28:48.739Z,54
2023-08-29T08:34:41.518Z,52
2023-08-29T08:41:42.639Z,53.8
2023-08-29T08:47:42.296Z,53.2
2023-08-29T08:53:35.458Z,57.3
2023-08-29T08:59:27.794Z,54.2
2023-08-29T09:08:47.687Z,58.5
2023-08-29T09:14:38.252Z,50.2
2023-08-29T09:20:30.445Z,49.4
2023-08-29T09:27:33.389Z,47
2023-08-29T09:34:33.952Z,45
2023-08-29T09:42:44.247Z,43
2023-08-29T09:49:45.750Z,44.3
2023-08-29T09:55:37.283Z,44.2
2023-08-29T10:01:29.684Z,44.4
2023-08-29T10:07:21.234Z,46.4
2023-08-29T10:13:13.180Z,45
2023-08-29T10:20:17.102Z,51.4
2023-08-29T10:29:39.628Z,54
2023-08-29T10:35:30.062Z,48.4
2023-08-29T10:41:23.545Z,45.3
2023-08-29T10:47:17.396Z,46.8
2023-08-29T10:53:09.733Z,42.3
2023-08-29T11:00:10.969Z,41.6
2023-08-29T11:06:03.290Z,42.5
2023-08-29T11:11:55.935Z,41.6
2023-08-29T11:17:48.374Z,43.8
2023-08-29T11:23:42.110Z,39.8
2023-08-29T11:29:35.855Z,40.2
2023-08-29T11:35:29.752Z,38.7
2023-08-29T11:44:51.493Z,39.4
2023-08-29T11:51:31.164Z,37.9
2023-08-29T11:57:24.380Z,41.4
2023-08-29T12:03:16.914Z,40.8
2023-08-29T12:09:09.527Z,39.5
2023-08-29T12:15:03.568Z,38.6
2023-08-29T12:20:55.837Z,36.9
2023-08-29T12:26:48.210Z,34.8
2023-08-29T12:32:41.559Z,33.9
2023-08-29T12:38:33.871Z,31.7
2023-08-29T12:44:26.058Z,28.7
2023-08-29T12:50:21.314Z,27.8
2023-08-29T12:56:17.409Z,26.5
2023-08-29T13:02:08.892Z,25.9
2023-08-29T13:08:02.825Z,25.3
2023-08-29T13:13:55.927Z,23.6
2023-08-29T13:19:48.307Z,24.1
2023-08-29T13:25:42.288Z,26.3
2023-08-29T13:31:34.864Z,24.3
2023-08-29T13:37:26.697Z,21.7
2023-08-29T13:43:19.500Z,22.3
2023-08-29T13:49:11.667Z,21.2
2023-08-29T13:55:07.005Z,28.8
2023-08-29T14:00:58.939Z,31.6
2023-08-29T14:06:50.454Z,28.8
2023-08-29T14:12:42.892Z,32.6
2023-08-29T14:18:33.223Z,31
2023-08-29T14:24:25.334Z,27.1
2023-08-29T14:30:17.773Z,30.8
2023-08-29T14:36:10.863Z,27.4
2023-08-29T14:42:05.683Z,30.9
2023-08-29T14:48:01.129Z,31
2023-08-29T14:53:53.815Z,31.3
2023-08-29T14:59:45.025Z,31.3
2023-08-29T15:05:38.689Z,30
2023-08-29T15:11:33.543Z,26.6
2023-08-29T15:17:25.778Z,25.2
2023-08-29T15:23:17.206Z,26.7
2023-08-29T15:29:09.760Z,24.3
2023-08-29T15:35:01.358Z,23.8
2023-08-29T15:40:54.657Z,24
2023-08-29T15:46:47.676Z,23.4
2023-08-29T15:52:39.949Z,21.7
2023-08-29T15:59:41.710Z,20.8
2023-08-29T16:05:36.732Z,19.6
2023-08-29T16:11:31.911Z,17.8
2023-08-29T16:18:35.775Z,15.5
2023-08-29T16:24:27.520Z,14.9
2023-08-29T16:32:38.468Z,12.9
2023-08-29T16:38:29.835Z,12.4
2023-08-29T16:44:22.539Z,12.5
2023-08-29T16:50:17.053Z,10.9
2023-08-29T16:56:09.800Z,10.9
2023-08-29T17:02:06.076Z,10.2
2023-08-29T17:09:11.951Z,9.1
2023-08-29T17:15:03.814Z,8.7
2023-08-29T17:20:56.768Z,8.1
2023-08-29T17:26:48.357Z,8.6
2023-08-29T17:32:44.137Z,7.9
2023-08-29T17:38:39.619Z,7.3
2023-08-29T17:45:50.166Z,6.4
2023-08-29T17:51:37.687Z,6.4
2023-08-29T17:57:37.625Z,6.4
2023-08-29T18:03:29.513Z,7.3
2023-08-29T18:09:22.983Z,6.9
2023-08-29T18:15:15.390Z,7.4
2023-08-29T18:22:21.660Z,6.9
2023-08-29T18:28:14.039Z,7.8
2023-08-29T18:34:05.831Z,7.3
2023-08-29T18:39:56.851Z,8.2
2023-08-29T18:45:49.259Z,7.5
2023-08-29T18:51:40.383Z,8.1
2023-08-29T18:57:32.511Z,7.9
2023-08-29T19:04:35.097Z,8.4
2023-08-29T19:10:24.428Z,8.1
2023-08-29T19:16:14.946Z,8.2
2023-08-29T19:22:10.541Z,8.1
2023-08-29T19:28:02.046Z,7.9
2023-08-29T19:33:55.741Z,8.6
2023-08-29T19:39:50.169Z,8
2023-08-29T19:46:51.410Z,7.9
2023-08-29T19:52:41.621Z,7.1
2023-08-29T19:58:34.302Z,7.3
2023-08-29T20:04:25.920Z,7.5
2023-08-29T20:10:17.733Z,7.5
2023-08-29T20:17:21.514Z,8.1
2023-08-29T20:23:11.472Z,8.7
2023-08-29T20:29:06.715Z,7.7
2023-08-29T20:34:57.014Z,7.8
2023-08-29T20:40:50.137Z,8.1
2023-08-29T20:46:45.461Z,8.2
2023-08-29T20:52:37.194Z,8.7
2023-08-29T20:58:27.546Z,8.9
2023-08-29T21:04:19.548Z,8.8
2023-08-29T21:10:11.896Z,9
2023-08-29T21:16:04.508Z,9.9
2023-08-29T21:21:57.747Z,9
2023-08-29T21:27:52.194Z,8.9
2023-08-29T21:34:55.994Z,9.4
2023-08-29T21:40:46.116Z,9.8
2023-08-29T21:46:40.610Z,9.5
2023-08-29T21:52:34.867Z,8.8
2023-08-29T21:58:27.030Z,8.2
2023-08-29T22:04:20.530Z,8.6
2023-08-29T22:11:22.501Z,9.3
2023-08-29T22:17:13.478Z,8.9
2023-08-29T22:24:20.637Z,9.2
2023-08-29T22:30:16.227Z,8.5
2023-08-29T22:36:11.669Z,8.6
2023-08-29T22:42:05.491Z,8.4
2023-08-29T22:49:09.027Z,8.5
2023-08-29T22:54:59.772Z,8
2023-08-29T23:00:54.504Z,7.5
2023-08-29T23:06:47.235Z,7.4
2023-08-29T23:12:50.172Z,6.9
2023-08-29T23:18:55.045Z,7.9
2023-08-29T23:24:46.471Z,8
2023-08-29T23:30:43.922Z,7.5
2023-08-29T23:36:51.256Z,7
2023-08-29T23:42:45.581Z,6.9
2023-08-29T23:48:42.007Z,10.2
2023-08-29T23:54:34.886Z,9.3
